Time;durP1;ratioP1;P1;durP2;ratioP2;P2;SDS_P1;SDS_P2;PMS_P1;PMS_P2;Temp;Humidity;BMP_temperature;BMP_pressure;BME280_temperature;BME280_humidity;BME280_pressure;Samples;Min_cycle;Max_cycle;Signal;HPM_P1;HPM_P2
2022/07/03 00:01:13;;;;;;;5.82;2.20;;;;;;;;;;4964734;28;20053;-62
2022/07/03 00:03:40;;;;;;;4.07;1.90;;;;;;;;;;4959086;28;20042;-62
2022/07/03 00:06:06;;;;;;;8.05;2.60;;;;;;;;;;4977673;28;20058;-62
2022/07/03 00:08:32;;;;;;;5.18;2.08;;;;;;;;;;4977048;28;20046;-62
2022/07/03 00:10:58;;;;;;;4.45;2.35;;;;;;;;;;4980469;28;20050;-62
2022/07/03 00:13:24;;;;;;;16.67;2.92;;;;;;;;;;4976925;28;20042;-62
2022/07/03 00:15:51;;;;;;;6.35;2.45;;;;;;;;;;4979446;28;20065;-62
2022/07/03 00:18:17;;;;;;;6.18;2.22;;;;;;;;;;4964280;28;20731;-62
2022/07/03 00:20:49;;;;;;;7.75;2.97;;;;;;;;;;4978030;28;20043;-62
2022/07/03 00:23:17;;;;;;;7.57;2.50;;;;;;;;;;4981693;28;20030;-62
2022/07/03 00:25:44;;;;;;;6.40;2.88;;;;;;;;;;4979836;28;20047;-62
2022/07/03 00:28:10;;;;;;;8.25;3.13;;;;;;;;;;4980852;28;20440;-62
2022/07/03 00:30:37;;;;;;;6.45;3.20;;;;;;;;;;4978176;28;20050;-62
2022/07/03 00:33:04;;;;;;;5.70;3.15;;;;;;;;;;4977439;28;20228;-62
2022/07/03 00:35:33;;;;;;;8.30;3.70;;;;;;;;;;4977712;28;20118;-62
2022/07/03 00:37:59;;;;;;;4.25;2.90;;;;;;;;;;4966087;28;20046;-62
2022/07/03 00:40:25;;;;;;;8.27;3.22;;;;;;;;;;4978774;28;20182;-62
2022/07/03 00:42:51;;;;;;;5.93;3.13;;;;;;;;;;4977984;28;20051;-62
2022/07/03 00:45:20;;;;;;;5.82;2.70;;;;;;;;;;4976570;28;20057;-62
2022/07/03 00:47:46;;;;;;;7.05;3.42;;;;;;;;;;4980585;28;20132;-62
2022/07/03 00:50:12;;;;;;;7.03;3.42;;;;;;;;;;4976886;28;20039;-62
2022/07/03 00:52:39;;;;;;;5.82;3.05;;;;;;;;;;4979744;28;20054;-62
2022/07/03 00:55:08;;;;;;;4.82;3.03;;;;;;;;;;4976827;28;20042;-62
2022/07/03 00:57:36;;;;;;;7.10;3.35;;;;;;;;;;4979266;28;20034;-62
2022/07/03 01:00:02;;;;;;;7.63;3.13;;;;;;;;;;4981939;28;20046;-62
2022/07/03 01:02:38;;;;;;;7.30;3.22;;;;;;;;;;4982271;28;20053;-62
2022/07/03 01:05:11;;;;;;;10.32;3.78;;;;;;;;;;4977562;28;20035;-62
2022/07/03 01:07:50;;;;;;;5.70;3.53;;;;;;;;;;4979736;28;20042;-62
2022/07/03 01:10:23;;;;;;;6.57;3.10;;;;;;;;;;4977553;28;20078;-62
2022/07/03 01:13:04;;;;;;;5.47;3.28;;;;;;;;;;4984019;28;22366;-62
2022/07/03 01:15:33;;;;;;;5.88;3.33;;;;;;;;;;4977432;28;20405;-62
2022/07/03 01:18:05;;;;;;;7.88;3.83;;;;;;;;;;4976765;28;20138;-62
2022/07/03 01:20:32;;;;;;;4.82;3.17;;;;;;;;;;4977459;28;20043;-62
2022/07/03 01:22:59;;;;;;;7.65;3.90;;;;;;;;;;4958146;28;20054;-62
2022/07/03 01:25:26;;;;;;;8.60;4.50;;;;;;;;;;4980608;28;20553;-62
2022/07/03 01:27:52;;;;;;;7.82;4.03;;;;;;;;;;4977683;28;20541;-62
2022/07/03 01:30:19;;;;;;;7.60;4.03;;;;;;;;;;4977274;28;20042;-62
2022/07/03 01:32:46;;;;;;;7.80;4.47;;;;;;;;;;4981860;28;20501;-62
2022/07/03 01:35:13;;;;;;;7.85;4.03;;;;;;;;;;4980393;28;20042;-62
2022/07/03 01:37:40;;;;;;;6.97;3.92;;;;;;;;;;4980399;28;20406;-62
2022/07/03 01:40:07;;;;;;;5.20;4.20;;;;;;;;;;4960623;28;20495;-62
2022/07/03 01:42:34;;;;;;;7.68;4.50;;;;;;;;;;4980866;28;20046;-62
2022/07/03 01:45:00;;;;;;;8.02;5.07;;;;;;;;;;4982045;28;20038;-62
2022/07/03 01:47:27;;;;;;;9.55;4.65;;;;;;;;;;4984186;28;20046;-62
2022/07/03 01:49:54;;;;;;;9.50;5.70;;;;;;;;;;4965399;28;20045;-62
2022/07/03 01:52:21;;;;;;;9.57;5.90;;;;;;;;;;4982882;28;20065;-62
2022/07/03 01:54:48;;;;;;;8.50;5.35;;;;;;;;;;4980320;28;20051;-62
2022/07/03 01:57:14;;;;;;;8.77;4.65;;;;;;;;;;4979037;28;20058;-62
2022/07/03 01:59:41;;;;;;;11.55;6.07;;;;;;;;;;4982564;28;20401;-62
2022/07/03 02:02:19;;;;;;;9.30;5.38;;;;;;;;;;4978552;28;20110;-62
2022/07/03 02:04:52;;;;;;;6.25;5.55;;;;;;;;;;4981706;28;20450;-62
2022/07/03 02:07:24;;;;;;;8.25;5.43;;;;;;;;;;4982786;28;20045;-62
2022/07/03 02:10:00;;;;;;;9.85;5.57;;;;;;;;;;4982444;28;20108;-62
2022/07/03 02:12:29;;;;;;;7.80;5.80;;;;;;;;;;4979646;28;20042;-62
2022/07/03 02:15:03;;;;;;;9.32;5.32;;;;;;;;;;4976236;28;20055;-62
2022/07/03 02:17:33;;;;;;;7.22;5.13;;;;;;;;;;4982866;28;20065;-62
2022/07/03 02:20:02;;;;;;;7.80;5.50;;;;;;;;;;4980051;28;20174;-62
2022/07/03 02:22:31;;;;;;;5.93;5.30;;;;;;;;;;4979448;28;20085;-62
2022/07/03 02:25:05;;;;;;;9.52;5.97;;;;;;;;;;4984919;28;20127;-62
2022/07/03 02:27:31;;;;;;;;;;;;;;;;;;4981153;28;20176;-62
2022/07/03 02:30:03;;;;;;;8.27;6.88;;;;;;;;;;4981986;28;19929;-62
2022/07/03 02:32:33;;;;;;;10.07;6.70;;;;;;;;;;4981315;28;20046;-62
2022/07/03 02:35:02;;;;;;;11.20;6.85;;;;;;;;;;4987709;28;20380;-62
2022/07/03 02:37:30;;;;;;;11.45;7.57;;;;;;;;;;4977759;28;20105;-62
2022/07/03 02:40:03;;;;;;;9.82;7.72;;;;;;;;;;4980992;28;20137;-62
2022/07/03 02:42:33;;;;;;;9.63;6.65;;;;;;;;;;4977257;28;20050;-62
2022/07/03 02:45:01;;;;;;;10.20;7.35;;;;;;;;;;4979126;28;20101;-62
2022/07/03 02:47:34;;;;;;;10.02;6.57;;;;;;;;;;4977247;28;20077;-62
2022/07/03 02:50:08;;;;;;;8.25;6.80;;;;;;;;;;4976891;28;20045;-62
2022/07/03 02:52:38;;;;;;;10.85;5.97;;;;;;;;;;4977532;28;20050;-62
2022/07/03 02:55:23;;;;;;;8.75;6.93;;;;;;;;;;4978471;28;20042;-62
2022/07/03 02:57:56;;;;;;;7.13;6.40;;;;;;;;;;4970772;28;20035;-62
2022/07/03 03:00:24;;;;;;;10.32;7.07;;;;;;;;;;4984289;28;20060;-62
2022/07/03 03:02:50;;;;;;;7.63;6.80;;;;;;;;;;4979303;28;20128;-62
2022/07/03 03:05:21;;;;;;;11.23;6.85;;;;;;;;;;4980495;28;20103;-62
2022/07/03 03:07:49;;;;;;;8.73;6.07;;;;;;;;;;4978809;28;20403;-62
2022/07/03 03:10:19;;;;;;;9.88;6.43;;;;;;;;;;4976949;28;20070;-62
2022/07/03 03:12:47;;;;;;;11.88;7.28;;;;;;;;;;4977096;28;20050;-62
2022/07/03 03:15:13;;;;;;;7.05;6.22;;;;;;;;;;4981838;28;20046;-62
2022/07/03 03:17:44;;;;;;;9.23;6.80;;;;;;;;;;4980166;28;20073;-62
2022/07/03 03:20:15;;;;;;;9.75;6.55;;;;;;;;;;4977926;28;20058;-62
2022/07/03 03:22:51;;;;;;;8.27;5.70;;;;;;;;;;4976960;28;20035;-61
2022/07/03 03:25:17;;;;;;;9.45;6.38;;;;;;;;;;4978290;28;20125;-62
2022/07/03 03:27:44;;;;;;;7.03;6.15;;;;;;;;;;4977662;28;20053;-62
2022/07/03 03:30:10;;;;;;;10.05;5.93;;;;;;;;;;4978329;28;20490;-62
2022/07/03 03:32:37;;;;;;;10.07;6.10;;;;;;;;;;4977319;28;20343;-62
2022/07/03 03:35:03;;;;;;;7.65;5.80;;;;;;;;;;4975392;28;20189;-62
2022/07/03 03:37:30;;;;;;;7.80;6.05;;;;;;;;;;4978591;28;20092;-62
2022/07/03 03:39:57;;;;;;;9.10;6.10;;;;;;;;;;4977159;28;20125;-62
2022/07/03 03:42:23;;;;;;;8.35;5.32;;;;;;;;;;4974243;28;20046;-62
2022/07/03 03:44:49;;;;;;;10.07;6.10;;;;;;;;;;4975226;28;20043;-62
2022/07/03 03:47:16;;;;;;;7.57;5.50;;;;;;;;;;4978930;28;20096;-62
2022/07/03 03:49:42;;;;;;;8.43;6.40;;;;;;;;;;4963043;28;20140;-62
2022/07/03 03:52:08;;;;;;;7.40;6.32;;;;;;;;;;4979728;28;20239;-62
2022/07/03 03:54:34;;;;;;;8.50;5.85;;;;;;;;;;4978492;28;20034;-63
2022/07/03 03:57:17;;;;;;;10.05;6.00;;;;;;;;;;4979530;28;20042;-62
2022/07/03 03:59:43;;;;;;;7.68;6.07;;;;;;;;;;4982283;28;20059;-63
2022/07/03 04:02:09;;;;;;;9.40;7.25;;;;;;;;;;4977923;28;20054;-62
2022/07/03 04:04:35;;;;;;;11.90;7.50;;;;;;;;;;4975384;28;20057;-62
2022/07/03 04:07:01;;;;;;;8.85;6.78;;;;;;;;;;4974137;28;20038;-62
2022/07/03 04:09:28;;;;;;;12.07;8.38;;;;;;;;;;4982299;28;20042;-62
2022/07/03 04:11:54;;;;;;;11.18;7.80;;;;;;;;;;4978178;28;20043;-63
2022/07/03 04:14:20;;;;;;;12.48;7.70;;;;;;;;;;4961057;28;20038;-63
2022/07/03 04:16:46;;;;;;;10.50;9.00;;;;;;;;;;4982764;28;20410;-62
2022/07/03 04:19:12;;;;;;;11.77;8.23;;;;;;;;;;4981297;28;20057;-63
2022/07/03 04:21:38;;;;;;;10.25;8.68;;;;;;;;;;4985589;28;20061;-62
2022/07/03 04:24:05;;;;;;;13.35;10.10;;;;;;;;;;4981356;28;20043;-62
2022/07/03 04:26:31;;;;;;;11.95;9.10;;;;;;;;;;4964612;28;20042;-62
2022/07/03 04:28:57;;;;;;;10.63;8.73;;;;;;;;;;4969423;28;20046;-62
2022/07/03 04:31:23;;;;;;;15.57;10.02;;;;;;;;;;4972352;28;20049;-62
2022/07/03 04:33:50;;;;;;;14.13;10.20;;;;;;;;;;4973645;28;20107;-62
2022/07/03 04:36:16;;;;;;;13.57;9.93;;;;;;;;;;4970747;28;20089;-63
2022/07/03 04:38:42;;;;;;;14.30;8.98;;;;;;;;;;4957472;28;20046;-63
2022/07/03 04:41:09;;;;;;;11.15;8.68;;;;;;;;;;4976760;28;20038;-63
2022/07/03 04:43:36;;;;;;;10.23;8.82;;;;;;;;;;4960970;28;20051;-63
2022/07/03 04:46:03;;;;;;;12.43;8.73;;;;;;;;;;4971516;28;20054;-63
2022/07/03 04:48:30;;;;;;;12.43;8.15;;;;;;;;;;4957117;28;20066;-63
2022/07/03 04:50:56;;;;;;;12.90;8.55;;;;;;;;;;4970252;28;20054;-63
2022/07/03 04:53:22;;;;;;;11.15;8.73;;;;;;;;;;4975038;28;20039;-63
2022/07/03 04:55:48;;;;;;;12.23;8.85;;;;;;;;;;4976258;28;20493;-63
2022/07/03 04:58:14;;;;;;;11.93;9.77;;;;;;;;;;4957257;28;20042;-63
2022/07/03 05:00:41;;;;;;;11.18;8.23;;;;;;;;;;4972069;28;21641;-63
2022/07/03 05:03:07;;;;;;;13.77;9.38;;;;;;;;;;4971952;28;20100;-63
2022/07/03 05:05:34;;;;;;;12.73;8.57;;;;;;;;;;4973876;28;20038;-63
2022/07/03 05:08:00;;;;;;;9.57;8.43;;;;;;;;;;4972769;28;20098;-63
2022/07/03 05:10:26;;;;;;;14.80;8.40;;;;;;;;;;4971589;28;20058;-63
2022/07/03 05:12:53;;;;;;;11.35;8.05;;;;;;;;;;4956214;28;20405;-63
2022/07/03 05:15:19;;;;;;;10.88;7.43;;;;;;;;;;4972078;28;20058;-64
2022/07/03 05:17:46;;;;;;;10.60;8.20;;;;;;;;;;4973283;28;20042;-63
2022/07/03 05:20:24;;;;;;;16.48;9.32;;;;;;;;;;4974231;28;20467;-63
2022/07/03 05:22:51;;;;;;;12.32;9.73;;;;;;;;;;4978850;28;22029;-63
2022/07/03 05:25:17;;;;;;;10.15;9.15;;;;;;;;;;4977740;28;20042;-63
2022/07/03 05:27:43;;;;;;;10.55;8.23;;;;;;;;;;4965413;28;20054;-63
2022/07/03 05:30:09;;;;;;;13.43;8.55;;;;;;;;;;4977786;28;20053;-63
2022/07/03 05:32:36;;;;;;;13.70;9.20;;;;;;;;;;4963232;28;20074;-64
2022/07/03 05:35:02;;;;;;;10.75;8.85;;;;;;;;;;4957483;28;20058;-63
2022/07/03 05:37:28;;;;;;;11.88;8.32;;;;;;;;;;4965542;28;20065;-64
2022/07/03 05:39:54;;;;;;;10.60;8.73;;;;;;;;;;4984763;28;20042;-63
2022/07/03 05:42:21;;;;;;;14.80;8.25;;;;;;;;;;4986832;28;20382;-63
2022/07/03 05:44:47;;;;;;;13.73;8.18;;;;;;;;;;4983207;28;20050;-64
2022/07/03 05:47:13;;;;;;;11.40;9.38;;;;;;;;;;4967395;28;20069;-63
2022/07/03 05:49:39;;;;;;;11.45;9.07;;;;;;;;;;4973735;28;20088;-64
2022/07/03 05:52:05;;;;;;;10.23;9.05;;;;;;;;;;4973130;28;20050;-64
2022/07/03 05:54:32;;;;;;;12.57;8.45;;;;;;;;;;4972006;28;20069;-63
2022/07/03 05:56:58;;;;;;;9.82;8.43;;;;;;;;;;4955800;28;20066;-64
2022/07/03 05:59:24;;;;;;;10.93;7.55;;;;;;;;;;4977246;28;20125;-64
2022/07/03 06:01:50;;;;;;;10.73;7.25;;;;;;;;;;4975967;28;20034;-63
2022/07/03 06:04:17;;;;;;;9.63;7.22;;;;;;;;;;4976403;28;20042;-63
2022/07/03 06:06:43;;;;;;;17.52;6.97;;;;;;;;;;4975324;28;20055;-63
2022/07/03 06:09:09;;;;;;;14.18;6.57;;;;;;;;;;4973955;28;20489;-63
2022/07/03 06:11:35;;;;;;;11.43;6.50;;;;;;;;;;4973036;28;20049;-63
2022/07/03 06:14:01;;;;;;;10.32;5.95;;;;;;;;;;4954175;28;20159;-63
2022/07/03 06:16:27;;;;;;;8.40;5.53;;;;;;;;;;4975167;28;20081;-63
2022/07/03 06:18:54;;;;;;;7.45;4.78;;;;;;;;;;4973348;28;20061;-64
2022/07/03 06:21:20;;;;;;;7.97;5.57;;;;;;;;;;4951260;28;20055;-64
2022/07/03 06:23:46;;;;;;;6.70;4.60;;;;;;;;;;4954167;28;20034;-63
2022/07/03 06:26:14;;;;;;;8.32;4.47;;;;;;;;;;4949908;28;20191;-63
2022/07/03 06:28:40;;;;;;;7.75;3.97;;;;;;;;;;4968586;28;20111;-63
2022/07/03 06:31:07;;;;;;;8.55;4.55;;;;;;;;;;4970090;28;20073;-63
2022/07/03 06:33:34;;;;;;;6.63;4.60;;;;;;;;;;4974717;28;20041;-63
2022/07/03 06:36:00;;;;;;;7.75;4.53;;;;;;;;;;4967189;28;20358;-63
2022/07/03 06:38:26;;;;;;;6.45;3.53;;;;;;;;;;4961499;28;20046;-63
2022/07/03 06:40:53;;;;;;;7.00;3.40;;;;;;;;;;4953417;28;20119;-63
2022/07/03 06:43:19;;;;;;;6.38;2.90;;;;;;;;;;4967986;28;20077;-63
2022/07/03 06:45:45;;;;;;;11.98;3.63;;;;;;;;;;4968579;28;20054;-63
2022/07/03 06:48:11;;;;;;;6.85;2.80;;;;;;;;;;4973676;28;20353;-63
2022/07/03 06:50:37;;;;;;;4.30;2.40;;;;;;;;;;4970382;28;21482;-63
2022/07/03 06:53:04;;;;;;;6.53;3.30;;;;;;;;;;4977102;28;20034;-63
2022/07/03 06:55:30;;;;;;;7.63;2.60;;;;;;;;;;4970966;28;20472;-63
2022/07/03 06:57:56;;;;;;;8.55;2.17;;;;;;;;;;4955906;28;20103;-63
2022/07/03 07:00:22;;;;;;;5.15;1.75;;;;;;;;;;4974789;28;20459;-63
2022/07/03 07:02:48;;;;;;;5.40;1.80;;;;;;;;;;4975246;28;20046;-63
2022/07/03 07:05:15;;;;;;;5.72;1.65;;;;;;;;;;4967236;28;20045;-63
2022/07/03 07:07:41;;;;;;;5.22;1.80;;;;;;;;;;4992032;28;20077;-63
2022/07/03 07:10:07;;;;;;;7.22;1.80;;;;;;;;;;4966418;28;20049;-63
2022/07/03 07:12:33;;;;;;;4.40;1.52;;;;;;;;;;4984446;28;20127;-63
2022/07/03 07:15:00;;;;;;;5.65;1.55;;;;;;;;;;4982401;28;20042;-63
2022/07/03 07:17:26;;;;;;;4.28;1.27;;;;;;;;;;4984463;28;20054;-63
2022/07/03 07:19:52;;;;;;;6.10;1.30;;;;;;;;;;5044776;28;20443;-63
2022/07/03 07:22:18;;;;;;;3.40;1.08;;;;;;;;;;4976944;28;20049;-63
2022/07/03 07:24:44;;;;;;;4.63;1.40;;;;;;;;;;4980739;28;20538;-63
2022/07/03 07:27:10;;;;;;;6.28;1.25;;;;;;;;;;4979683;28;20042;-63
2022/07/03 07:29:37;;;;;;;3.95;1.38;;;;;;;;;;4959938;28;20379;-63
2022/07/03 07:32:03;;;;;;;6.82;1.40;;;;;;;;;;4974608;28;20058;-65
2022/07/03 07:34:29;;;;;;;8.23;1.95;;;;;;;;;;4976339;28;20043;-65
2022/07/03 07:36:56;;;;;;;4.97;1.40;;;;;;;;;;4974520;28;20064;-65
2022/07/03 07:39:22;;;;;;;5.95;1.85;;;;;;;;;;4972386;28;20046;-65
2022/07/03 07:41:48;;;;;;;3.95;1.85;;;;;;;;;;4972420;28;20049;-66
2022/07/03 07:44:14;;;;;;;5.68;1.38;;;;;;;;;;4974136;28;20552;-65
2022/07/03 07:46:40;;;;;;;4.97;1.63;;;;;;;;;;4955449;28;20048;-65
2022/07/03 07:49:06;;;;;;;4.95;1.42;;;;;;;;;;4967265;28;20145;-65
2022/07/03 07:51:33;;;;;;;3.80;1.20;;;;;;;;;;4974792;28;20068;-65
2022/07/03 07:53:59;;;;;;;6.05;1.83;;;;;;;;;;4975316;28;20493;-64
2022/07/03 07:56:26;;;;;;;7.22;1.23;;;;;;;;;;4979904;28;20042;-64
2022/07/03 07:58:52;;;;;;;4.95;1.00;;;;;;;;;;4990294;28;20049;-64
2022/07/03 08:06:49;;;;;;;4.28;1.20;;;;;;;;;;4987726;28;20632;-65
2022/07/03 08:09:15;;;;;;;4.35;1.00;;;;;;;;;;4988464;28;20125;-65
2022/07/03 08:11:42;;;;;;;6.80;1.77;;;;;;;;;;4989254;28;20054;-65
2022/07/03 08:14:09;;;;;;;4.95;0.90;;;;;;;;;;4988629;28;20046;-64
2022/07/03 08:16:38;;;;;;;6.13;0.90;;;;;;;;;;4990410;28;20528;-65
2022/07/03 08:19:05;;;;;;;2.75;0.80;;;;;;;;;;4997489;28;20542;-65
2022/07/03 08:21:32;;;;;;;3.20;1.00;;;;;;;;;;4991221;28;20038;-65
2022/07/03 08:23:58;;;;;;;4.35;1.10;;;;;;;;;;4999421;28;20050;-64
2022/07/03 08:26:24;;;;;;;3.88;0.93;;;;;;;;;;4979759;28;20046;-65
2022/07/03 08:28:51;;;;;;;6.18;1.17;;;;;;;;;;4979560;28;20038;-64
2022/07/03 08:31:17;;;;;;;7.25;1.98;;;;;;;;;;4981391;28;20042;-65
2022/07/03 08:33:43;;;;;;;4.63;1.08;;;;;;;;;;4977928;28;20106;-64
2022/07/03 08:36:09;;;;;;;4.47;1.38;;;;;;;;;;4974451;28;20133;-65
2022/07/03 08:38:35;;;;;;;6.20;1.08;;;;;;;;;;4992581;28;20406;-64
2022/07/03 08:41:03;;;;;;;2.92;1.00;;;;;;;;;;4992063;28;20039;-65
2022/07/03 08:43:29;;;;;;;5.03;1.10;;;;;;;;;;4990725;28;20065;-65
2022/07/03 08:45:56;;;;;;;4.13;1.25;;;;;;;;;;4988643;28;20050;-64
2022/07/03 08:48:23;;;;;;;6.68;1.35;;;;;;;;;;4969911;28;20050;-65
2022/07/03 08:50:51;;;;;;;6.00;1.20;;;;;;;;;;4970580;28;20498;-65
2022/07/03 08:53:18;;;;;;;5.80;1.25;;;;;;;;;;4990667;28;20284;-65
2022/07/03 08:55:45;;;;;;;6.65;1.48;;;;;;;;;;4999520;28;20043;-65
2022/07/03 08:58:14;;;;;;;5.93;1.85;;;;;;;;;;4982899;28;20365;-64
2022/07/03 09:00:41;;;;;;;10.15;1.67;;;;;;;;;;5000348;28;20058;-65
2022/07/03 09:03:10;;;;;;;4.72;1.20;;;;;;;;;;4994870;28;20046;-65
2022/07/03 09:05:36;;;;;;;5.55;1.25;;;;;;;;;;4995903;28;20102;-65
2022/07/03 09:08:03;;;;;;;5.22;1.40;;;;;;;;;;4995892;28;20046;-65
2022/07/03 09:10:29;;;;;;;8.35;2.20;;;;;;;;;;4993559;28;20457;-65
2022/07/03 09:12:55;;;;;;;5.35;1.23;;;;;;;;;;4992645;28;20181;-65
2022/07/03 09:15:22;;;;;;;6.90;1.48;;;;;;;;;;4972518;28;20058;-65
2022/07/03 09:17:58;;;;;;;7.78;1.80;;;;;;;;;;4971349;28;20580;-65
2022/07/03 09:20:32;;;;;;;11.32;2.90;;;;;;;;;;4973035;28;20061;-65
2022/07/03 09:23:09;;;;;;;9.15;1.65;;;;;;;;;;4996916;28;20046;-65
2022/07/03 09:25:35;;;;;;;5.53;1.15;;;;;;;;;;4998952;28;20061;-64
2022/07/03 09:28:01;;;;;;;6.03;1.23;;;;;;;;;;5000056;28;20393;-65
2022/07/03 09:30:27;;;;;;;11.77;1.98;;;;;;;;;;4996270;28;20042;-65
2022/07/03 09:32:54;;;;;;;6.57;1.30;;;;;;;;;;4992234;28;20042;-65
2022/07/03 09:35:23;;;;;;;8.00;1.40;;;;;;;;;;4995200;28;20061;-65
2022/07/03 09:37:50;;;;;;;6.47;1.55;;;;;;;;;;4994372;28;20039;-63
2022/07/03 09:40:16;;;;;;;8.82;1.30;;;;;;;;;;4991358;28;20085;-62
2022/07/03 09:43:01;;;;;;;7.88;1.77;;;;;;;;;;4974186;28;20038;-62
2022/07/03 09:45:28;;;;;;;15.02;2.28;;;;;;;;;;4991553;28;20118;-63
2022/07/03 09:47:54;;;;;;;3.90;1.00;;;;;;;;;;4992272;28;20122;-62
2022/07/03 09:50:20;;;;;;;4.60;1.10;;;;;;;;;;4996718;28;20050;-63
2022/07/03 09:52:48;;;;;;;5.22;1.35;;;;;;;;;;5003612;28;20050;-62
2022/07/03 09:55:15;;;;;;;9.18;2.13;;;;;;;;;;4995935;28;20046;-62
2022/07/03 09:57:43;;;;;;;7.65;1.45;;;;;;;;;;4995811;28;20042;-62
2022/07/03 10:00:12;;;;;;;5.80;1.30;;;;;;;;;;4980211;28;20172;-62
2022/07/03 10:03:07;;;;;;;5.35;1.38;;;;;;;;;;4994838;28;20046;-62
2022/07/03 10:05:34;;;;;;;9.68;1.80;;;;;;;;;;4999004;28;20552;-63
2022/07/03 10:08:06;;;;;;;4.22;1.35;;;;;;;;;;4980451;28;20099;-62
2022/07/03 10:10:33;;;;;;;7.50;1.42;;;;;;;;;;4975486;28;20046;-62
2022/07/03 10:13:00;;;;;;;6.45;1.83;;;;;;;;;;4992925;28;20386;-62
2022/07/03 10:15:27;;;;;;;7.63;1.90;;;;;;;;;;4974801;28;20058;-62
2022/07/03 10:17:56;;;;;;;10.80;1.98;;;;;;;;;;5044561;28;20044;-63
2022/07/03 10:20:28;;;;;;;7.43;1.70;;;;;;;;;;5049527;28;20130;-62
2022/07/03 10:22:55;;;;;;;7.25;1.42;;;;;;;;;;5049799;28;20120;-62
2022/07/03 10:25:22;;;;;;;8.80;1.80;;;;;;;;;;5051096;28;20063;-62
2022/07/03 10:27:49;;;;;;;6.55;1.70;;;;;;;;;;5053345;28;20136;-62
2022/07/03 10:30:17;;;;;;;11.10;2.15;;;;;;;;;;5059999;28;20049;-62
2022/07/03 10:32:44;;;;;;;7.85;1.88;;;;;;;;;;5063287;28;20447;-62
2022/07/03 10:35:12;;;;;;;10.23;2.17;;;;;;;;;;5064760;28;20368;-62
2022/07/03 10:37:46;;;;;;;10.93;2.30;;;;;;;;;;5057940;28;20073;-62
2022/07/03 10:46:10;;;;;;;10.48;2.30;;;;;;;;;;5054771;28;20059;-62
2022/07/03 10:48:53;;;;;;;10.32;2.80;;;;;;;;;;5049673;28;20365;-62
2022/07/03 10:51:19;;;;;;;10.13;1.83;;;;;;;;;;5049608;28;20052;-62
2022/07/03 10:53:45;;;;;;;9.00;1.73;;;;;;;;;;5051025;28;20029;-62
2022/07/03 10:56:12;;;;;;;8.90;2.20;;;;;;;;;;5055359;28;20075;-62
2022/07/03 10:58:57;;;;;;;9.85;1.63;;;;;;;;;;5063530;28;20392;-63
2022/07/03 11:01:31;;;;;;;6.03;1.77;;;;;;;;;;5059939;28;20044;-62
2022/07/03 11:03:59;;;;;;;5.40;1.48;;;;;;;;;;5058100;28;20157;-62
2022/07/03 11:06:52;;;;;;;7.72;1.67;;;;;;;;;;5062621;28;20128;-62
2022/07/03 11:09:18;;;;;;;8.15;1.50;;;;;;;;;;5058558;28;20511;-62
2022/07/03 11:11:57;;;;;;;7.60;1.77;;;;;;;;;;5057070;28;20041;-63
2022/07/03 11:14:25;;;;;;;7.80;1.85;;;;;;;;;;5061849;28;20032;-62
2022/07/03 11:17:10;;;;;;;6.57;1.60;;;;;;;;;;5027927;28;20109;-62
2022/07/03 11:19:36;;;;;;;6.00;1.58;;;;;;;;;;4989513;28;20083;-62
2022/07/03 11:22:05;;;;;;;3.97;1.27;;;;;;;;;;4971653;28;20065;-63
2022/07/03 11:24:38;;;;;;;7.05;1.42;;;;;;;;;;4988761;28;20070;-62
2022/07/03 11:27:13;;;;;;;7.47;1.75;;;;;;;;;;4988840;28;20166;-63
2022/07/03 11:29:40;;;;;;;3.90;1.00;;;;;;;;;;4988215;28;20489;-62
2022/07/03 11:32:33;;;;;;;4.03;1.08;;;;;;;;;;4990656;28;20046;-62
2022/07/03 11:34:59;;;;;;;3.92;1.20;;;;;;;;;;4997353;28;20038;-63
2022/07/03 11:37:26;;;;;;;4.57;1.20;;;;;;;;;;4999574;28;20635;-62
2022/07/03 11:39:53;;;;;;;4.65;1.10;;;;;;;;;;4996527;28;20504;-62
2022/07/03 11:42:20;;;;;;;4.13;1.20;;;;;;;;;;4995108;28;20043;-62
2022/07/03 11:44:47;;;;;;;4.00;1.10;;;;;;;;;;4992739;28;20045;-62
2022/07/03 11:47:14;;;;;;;4.60;0.90;;;;;;;;;;4992747;28;20381;-62
2022/07/03 11:49:49;;;;;;;3.20;0.90;;;;;;;;;;4988848;28;20501;-62
2022/07/03 11:52:31;;;;;;;2.42;0.77;;;;;;;;;;4988126;28;20087;-62
2022/07/03 11:54:57;;;;;;;3.07;1.03;;;;;;;;;;4992654;28;20038;-62
2022/07/03 11:57:24;;;;;;;6.47;1.27;;;;;;;;;;5000258;28;20061;-62
2022/07/03 11:59:52;;;;;;;5.95;1.10;;;;;;;;;;5002028;28;20552;-62
2022/07/03 12:02:18;;;;;;;6.22;1.52;;;;;;;;;;4996473;28;20038;-62
2022/07/03 12:04:44;;;;;;;5.15;0.95;;;;;;;;;;4994298;28;20127;-62
2022/07/03 12:07:10;;;;;;;8.30;0.90;;;;;;;;;;4996296;28;20110;-62
2022/07/03 12:09:37;;;;;;;5.90;1.17;;;;;;;;;;4995258;28;20050;-62
2022/07/03 12:12:06;;;;;;;4.20;1.00;;;;;;;;;;4988964;28;20187;-63
2022/07/03 12:14:34;;;;;;;4.72;0.90;;;;;;;;;;4987401;28;20046;-62
2022/07/03 12:17:00;;;;;;;3.60;1.00;;;;;;;;;;4987465;28;20065;-62
2022/07/03 12:19:26;;;;;;;3.83;1.23;;;;;;;;;;4989303;28;20050;-62
2022/07/03 12:21:52;;;;;;;2.70;1.13;;;;;;;;;;4982249;28;21039;-62
2022/07/03 12:24:18;;;;;;;2.65;0.95;;;;;;;;;;4996119;28;20038;-62
2022/07/03 12:26:45;;;;;;;4.15;1.10;;;;;;;;;;4979369;28;20045;-62
2022/07/03 12:29:13;;;;;;;6.65;1.02;;;;;;;;;;4994591;28;20043;-62
2022/07/03 12:31:40;;;;;;;5.25;1.13;;;;;;;;;;4991350;28;20038;-63
2022/07/03 12:34:07;;;;;;;2.50;0.90;;;;;;;;;;4988949;28;20431;-63
2022/07/03 12:36:33;;;;;;;4.15;1.35;;;;;;;;;;4993891;28;20052;-63
2022/07/03 12:39:00;;;;;;;3.83;1.00;;;;;;;;;;4977136;28;20051;-62
2022/07/03 12:41:26;;;;;;;3.13;0.88;;;;;;;;;;4995902;28;20366;-63
2022/07/03 12:43:53;;;;;;;4.65;1.10;;;;;;;;;;4989551;28;20046;-63
2022/07/03 12:46:20;;;;;;;3.20;0.90;;;;;;;;;;4991260;28;20084;-63
2022/07/03 12:48:46;;;;;;;3.53;0.90;;;;;;;;;;4989840;28;20053;-63
2022/07/03 12:51:12;;;;;;;5.00;1.40;;;;;;;;;;4983895;28;20089;-63
2022/07/03 12:53:39;;;;;;;4.95;1.10;;;;;;;;;;4979384;28;20078;-63
2022/07/03 12:56:06;;;;;;;4.43;1.23;;;;;;;;;;4983918;28;20043;-63
2022/07/03 13:01:25;;;;;;;4.55;1.00;;;;;;;;;;4980094;28;20061;-64
2022/07/03 13:03:51;;;;;;;4.80;1.25;;;;;;;;;;4962177;28;20042;-64
2022/07/03 13:06:17;;;;;;;4.28;1.15;;;;;;;;;;4982568;28;20082;-64
2022/07/03 13:08:59;;;;;;;4.32;0.82;;;;;;;;;;4986836;28;20057;-64
2022/07/03 13:11:36;;;;;;;5.45;1.05;;;;;;;;;;4977241;28;20474;-64
2022/07/03 13:14:04;;;;;;;2.22;0.90;;;;;;;;;;4984524;28;20065;-64
2022/07/03 13:16:36;;;;;;;4.18;1.05;;;;;;;;;;4987190;28;20093;-64
2022/07/03 13:19:02;;;;;;;3.83;1.00;;;;;;;;;;4965170;28;20093;-64
2022/07/03 13:21:29;;;;;;;5.32;1.13;;;;;;;;;;4979301;28;20038;-64
2022/07/03 13:23:56;;;;;;;5.00;1.17;;;;;;;;;;4984769;28;20968;-64
2022/07/03 13:26:23;;;;;;;3.08;0.95;;;;;;;;;;4981403;28;20073;-64
2022/07/03 13:28:49;;;;;;;3.35;0.93;;;;;;;;;;4984635;28;20065;-64
2022/07/03 13:31:15;;;;;;;5.60;1.33;;;;;;;;;;4982770;28;20045;-64
2022/07/03 13:33:41;;;;;;;7.57;1.30;;;;;;;;;;4979960;28;20056;-64
2022/07/03 13:36:07;;;;;;;4.43;1.08;;;;;;;;;;4969456;28;20408;-64
2022/07/03 13:38:34;;;;;;;5.93;1.10;;;;;;;;;;4989465;28;20038;-64
2022/07/03 13:41:00;;;;;;;3.22;0.98;;;;;;;;;;4987542;28;20387;-64
2022/07/03 13:43:26;;;;;;;2.17;0.70;;;;;;;;;;4986761;28;20092;-65
2022/07/03 13:45:52;;;;;;;3.28;0.90;;;;;;;;;;4968125;28;20050;-65
2022/07/03 13:48:19;;;;;;;4.00;1.02;;;;;;;;;;4969689;28;20046;-65
2022/07/03 13:50:46;;;;;;;2.75;1.20;;;;;;;;;;4985485;28;20431;-65
2022/07/03 13:53:12;;;;;;;6.30;1.30;;;;;;;;;;4986693;28;20102;-65
2022/07/03 13:55:40;;;;;;;3.63;1.35;;;;;;;;;;4969277;28;20050;-65
2022/07/03 13:58:07;;;;;;;4.72;1.33;;;;;;;;;;4985782;28;20453;-65
2022/07/03 14:00:34;;;;;;;4.60;1.05;;;;;;;;;;4987374;28;20049;-65
2022/07/03 14:03:01;;;;;;;4.28;1.23;;;;;;;;;;4986126;28;20045;-65
2022/07/03 14:05:27;;;;;;;6.03;1.42;;;;;;;;;;4985425;28;20061;-65
2022/07/03 14:07:54;;;;;;;2.97;1.00;;;;;;;;;;4984648;28;20037;-65
2022/07/03 14:10:22;;;;;;;4.75;1.80;;;;;;;;;;4991858;28;20653;-68
2022/07/03 14:12:48;;;;;;;9.65;1.67;;;;;;;;;;4983249;28;20042;-67
2022/07/03 14:15:14;;;;;;;3.63;1.20;;;;;;;;;;4984732;28;20447;-68
2022/07/03 14:17:43;;;;;;;6.50;1.33;;;;;;;;;;4977616;28;20077;-68
2022/07/03 14:20:10;;;;;;;5.13;1.63;;;;;;;;;;4968434;28;20133;-68
2022/07/03 14:22:36;;;;;;;9.30;1.75;;;;;;;;;;4993210;28;20042;-68
2022/07/03 14:25:02;;;;;;;4.38;1.45;;;;;;;;;;4975738;28;20065;-67
2022/07/03 14:33:01;;;;;;;4.70;1.23;;;;;;;;;;4984347;28;20130;-66
2022/07/03 14:35:27;;;;;;;5.10;1.63;;;;;;;;;;4964723;28;20467;-66
2022/07/03 14:37:53;;;;;;;3.83;1.10;;;;;;;;;;4974741;28;20492;-66
2022/07/03 14:40:19;;;;;;;3.35;1.20;;;;;;;;;;4983754;28;20062;-67
2022/07/03 14:42:45;;;;;;;3.13;1.00;;;;;;;;;;4984469;28;20039;-67
2022/07/03 14:45:11;;;;;;;4.05;1.40;;;;;;;;;;4983116;28;20066;-66
2022/07/03 14:47:38;;;;;;;2.67;1.00;;;;;;;;;;4983490;28;20053;-66
2022/07/03 14:50:04;;;;;;;4.22;1.30;;;;;;;;;;4983481;28;20513;-66
2022/07/03 14:52:30;;;;;;;3.78;1.30;;;;;;;;;;4968472;28;20050;-66
2022/07/03 14:54:57;;;;;;;4.35;1.40;;;;;;;;;;4969125;28;20106;-66
2022/07/03 14:57:34;;;;;;;3.85;1.55;;;;;;;;;;4983110;28;20069;-66
2022/07/03 15:00:09;;;;;;;6.43;1.65;;;;;;;;;;4985763;28;20035;-66
2022/07/03 15:02:46;;;;;;;5.03;1.25;;;;;;;;;;4981272;28;20034;-65
2022/07/03 15:05:13;;;;;;;4.75;1.30;;;;;;;;;;4981521;28;20045;-66